createdAt,value
2018-03-24T00:00:08.601Z,922.94
2018-03-24T00:01:08.594Z,922.93
2018-03-24T00:02:08.590Z,922.93
2018-03-24T00:03:08.581Z,922.89
2018-03-24T00:04:08.578Z,922.87
2018-03-24T00:05:08.568Z,922.83
2018-03-24T00:06:08.564Z,922.84
2018-03-24T00:07:08.554Z,922.78
2018-03-24T00:08:08.547Z,922.85
2018-03-24T00:09:08.541Z,922.81
2018-03-24T00:10:08.534Z,922.81
2018-03-24T00:11:08.527Z,922.81
2018-03-24T00:12:08.520Z,922.79
2018-03-24T00:13:08.516Z,922.76
2018-03-24T00:14:08.507Z,922.76
2018-03-24T00:15:08.500Z,922.72
2018-03-24T00:16:08.492Z,922.73
2018-03-24T00:17:08.486Z,922.71
2018-03-24T00:18:08.479Z,922.65
2018-03-24T00:19:08.473Z,922.66
2018-03-24T00:20:08.466Z,922.66
2018-03-24T00:21:08.460Z,922.61
2018-03-24T00:22:08.452Z,922.63
2018-03-24T00:23:08.445Z,922.62
2018-03-24T00:24:08.438Z,922.63
2018-03-24T00:25:08.432Z,922.68
2018-03-24T00:26:08.425Z,922.62
2018-03-24T00:27:08.419Z,922.61
2018-03-24T00:28:08.428Z,922.63
2018-03-24T00:29:08.403Z,922.61
2018-03-24T00:30:08.397Z,922.62
2018-03-24T00:31:08.391Z,922.62
2018-03-24T00:32:08.381Z,922.59
2018-03-24T00:33:08.382Z,922.62
2018-03-24T00:34:08.369Z,922.60
2018-03-24T00:35:08.397Z,922.54
2018-03-24T00:36:08.354Z,922.53
2018-03-24T00:37:08.350Z,922.52
2018-03-24T00:38:08.342Z,922.53
2018-03-24T00:39:08.333Z,922.51
2018-03-24T00:40:08.325Z,922.53
2018-03-24T00:41:08.318Z,922.50
2018-03-24T00:42:08.312Z,922.49
2018-03-24T00:43:08.305Z,922.47
2018-03-24T00:44:08.296Z,922.44
2018-03-24T00:45:08.289Z,922.45
2018-03-24T00:46:08.283Z,922.49
2018-03-24T00:47:08.280Z,922.45
2018-03-24T00:48:08.269Z,922.44
2018-03-24T00:49:08.261Z,922.43
2018-03-24T00:50:08.254Z,922.44
2018-03-24T00:51:08.248Z,922.42
2018-03-24T00:52:08.239Z,922.42
2018-03-24T00:53:08.233Z,922.43
2018-03-24T00:54:08.225Z,922.38
2018-03-24T00:55:08.220Z,922.35
2018-03-24T00:56:08.210Z,922.35
2018-03-24T00:57:08.204Z,922.34
2018-03-24T00:58:08.197Z,922.28
2018-03-24T00:59:08.191Z,922.31
2018-03-24T01:00:08.182Z,922.29
2018-03-24T01:01:08.175Z,922.23
2018-03-24T01:02:08.169Z,922.23
2018-03-24T01:03:08.162Z,922.25
2018-03-24T01:04:08.153Z,922.18
2018-03-24T01:05:08.151Z,922.19
2018-03-24T01:06:08.140Z,922.19
2018-03-24T01:07:08.135Z,922.14
2018-03-24T01:08:08.125Z,922.13
2018-03-24T01:09:08.120Z,922.15
2018-03-24T01:10:08.112Z,922.10
2018-03-24T01:11:08.105Z,922.09
2018-03-24T01:12:08.096Z,922.09
2018-03-24T01:13:08.089Z,922.10
2018-03-24T01:14:08.382Z,922.09
2018-03-24T01:15:08.079Z,922.09
2018-03-24T01:16:08.066Z,922.10
2018-03-24T01:17:08.061Z,922.06
2018-03-24T01:18:08.053Z,922.08
2018-03-24T01:19:08.354Z,922.04
2018-03-24T01:20:08.037Z,922.02
2018-03-24T01:21:08.031Z,922.01
2018-03-24T01:22:08.025Z,921.97
2018-03-24T01:23:08.023Z,921.98
2018-03-24T01:24:08.010Z,921.94
2018-03-24T01:25:08.002Z,921.94
2018-03-24T01:26:07.995Z,921.92
2018-03-24T01:27:07.987Z,921.96
2018-03-24T01:28:07.979Z,921.93
2018-03-24T01:29:07.973Z,921.91
2018-03-24T01:30:07.965Z,921.90
2018-03-24T01:31:07.962Z,921.87
2018-03-24T01:32:07.949Z,921.81
2018-03-24T01:33:07.942Z,921.82
2018-03-24T01:34:07.935Z,921.82
2018-03-24T01:35:07.928Z,921.84
2018-03-24T01:36:07.919Z,921.81
2018-03-24T01:37:07.915Z,921.78
2018-03-24T01:38:07.906Z,921.79
2018-03-24T01:39:07.898Z,921.78
2018-03-24T01:40:07.891Z,921.82
2018-03-24T01:41:07.884Z,921.78
2018-03-24T01:42:14.143Z,921.74
2018-03-24T01:43:07.870Z,921.75
2018-03-24T01:44:07.862Z,921.72
2018-03-24T01:45:07.855Z,921.74
2018-03-24T01:46:07.857Z,921.72
2018-03-24T01:47:07.840Z,921.74
2018-03-24T01:48:07.833Z,921.68
2018-03-24T01:49:07.825Z,921.67
2018-03-24T01:50:07.818Z,921.67
2018-03-24T01:51:07.811Z,921.64
2018-03-24T01:52:07.806Z,921.64
2018-03-24T01:53:07.800Z,921.67
2018-03-24T01:54:07.788Z,921.68
2018-03-24T01:55:07.780Z,921.60
2018-03-24T01:56:07.773Z,921.64
2018-03-24T01:57:07.765Z,921.64
2018-03-24T01:58:07.758Z,921.64
2018-03-24T01:59:07.750Z,921.60
2018-03-24T02:00:07.742Z,921.58
2018-03-24T02:01:07.735Z,921.55
2018-03-24T02:02:07.728Z,921.60
2018-03-24T02:03:07.722Z,921.56
2018-03-24T02:04:07.713Z,921.53
2018-03-24T02:05:07.707Z,921.55
2018-03-24T02:06:07.698Z,921.54
2018-03-24T02:07:07.691Z,921.52
2018-03-24T02:08:07.682Z,921.52
2018-03-24T02:09:07.675Z,921.48
2018-03-24T02:10:07.668Z,921.46
2018-03-24T02:11:07.660Z,921.44
2018-03-24T02:12:07.652Z,921.48
2018-03-24T02:13:07.645Z,921.45
2018-03-24T02:14:07.637Z,921.42
2018-03-24T02:15:07.630Z,921.46
2018-03-24T02:16:07.623Z,921.42
2018-03-24T02:17:07.615Z,921.42
2018-03-24T02:18:07.610Z,921.42
2018-03-24T02:19:07.600Z,921.42
2018-03-24T02:20:07.591Z,921.38
2018-03-24T02:21:07.584Z,921.39
2018-03-24T02:22:07.575Z,921.39
2018-03-24T02:23:07.568Z,921.32
2018-03-24T02:24:07.560Z,921.34
2018-03-24T02:25:07.553Z,921.34
2018-03-24T02:26:07.546Z,921.34
2018-03-24T02:27:07.538Z,921.31
2018-03-24T02:28:07.531Z,921.26
2018-03-24T02:29:07.521Z,921.27
2018-03-24T02:30:07.514Z,921.28
2018-03-24T02:31:07.505Z,921.27
2018-03-24T02:32:07.500Z,921.27
2018-03-24T02:33:07.491Z,921.27
2018-03-24T02:34:07.483Z,921.19
2018-03-24T02:35:07.477Z,921.19
2018-03-24T02:36:07.468Z,921.18
2018-03-24T02:37:07.461Z,921.17
2018-03-24T02:38:07.461Z,921.18
2018-03-24T02:39:07.444Z,921.16
2018-03-24T02:40:07.437Z,921.15
2018-03-24T02:41:07.429Z,921.12
2018-03-24T02:42:07.421Z,921.15
2018-03-24T02:43:07.414Z,921.14
2018-03-24T02:44:07.406Z,921.06
2018-03-24T02:45:07.397Z,921.12
2018-03-24T02:46:07.391Z,921.07
2018-03-24T02:47:07.382Z,921.08
2018-03-24T02:48:07.377Z,921.10
2018-03-24T02:49:07.366Z,921.08
2018-03-24T02:50:07.361Z,921.06
2018-03-24T02:51:07.354Z,921.09
2018-03-24T02:52:07.343Z,921.06
2018-03-24T02:53:07.335Z,921.07
2018-03-24T02:54:07.327Z,921.05
2018-03-24T02:55:07.319Z,921.02
2018-03-24T02:56:07.311Z,921.02
2018-03-24T02:57:07.304Z,921.05
2018-03-24T02:58:07.301Z,921.03
2018-03-24T02:59:07.289Z,920.99
2018-03-24T03:00:07.281Z,921.00
2018-03-24T03:01:07.272Z,920.97
2018-03-24T03:02:07.266Z,920.99
2018-03-24T03:03:07.260Z,920.96
2018-03-24T03:04:07.249Z,920.95
2018-03-24T03:05:07.241Z,920.99
2018-03-24T03:06:07.237Z,920.95
2018-03-24T03:07:07.226Z,920.97
2018-03-24T03:08:07.219Z,920.96
2018-03-24T03:09:07.212Z,920.99
2018-03-24T03:10:07.209Z,920.93
2018-03-24T03:11:07.255Z,920.96
2018-03-24T03:12:07.187Z,920.95
2018-03-24T03:13:07.181Z,920.94
2018-03-24T03:14:07.172Z,920.90
2018-03-24T03:15:07.164Z,920.96
2018-03-24T03:16:07.155Z,920.92
2018-03-24T03:17:07.148Z,920.93
2018-03-24T03:18:07.141Z,920.88
2018-03-24T03:19:07.133Z,920.92
2018-03-24T03:20:07.125Z,920.86
2018-03-24T03:21:07.118Z,920.85
2018-03-24T03:22:07.112Z,920.88
2018-03-24T03:23:07.104Z,920.83
2018-03-24T03:24:07.094Z,920.80
2018-03-24T03:25:07.088Z,920.81
2018-03-24T03:26:07.078Z,920.80
2018-03-24T03:27:07.071Z,920.77
2018-03-24T03:28:07.104Z,920.79
2018-03-24T03:29:07.057Z,920.77
2018-03-24T03:30:07.049Z,920.78
2018-03-24T03:31:07.041Z,920.77
2018-03-24T03:32:07.031Z,920.79
2018-03-24T03:33:07.081Z,920.80
2018-03-24T03:34:07.017Z,920.71
2018-03-24T03:35:07.008Z,920.71
2018-03-24T03:36:07.000Z,920.70
2018-03-24T03:37:06.992Z,920.71
2018-03-24T03:38:06.984Z,920.69
2018-03-24T03:39:06.977Z,920.66
2018-03-24T03:40:06.970Z,920.64
2018-03-24T03:41:06.962Z,920.61
2018-03-24T03:42:06.954Z,920.64
2018-03-24T03:43:06.953Z,920.62
2018-03-24T03:44:06.938Z,920.60
2018-03-24T03:45:06.932Z,920.59
2018-03-24T03:46:06.924Z,920.55
2018-03-24T03:47:06.973Z,920.58
2018-03-24T03:48:06.906Z,920.60
2018-03-24T03:49:06.899Z,920.57
2018-03-24T03:50:06.891Z,920.58
2018-03-24T03:51:06.888Z,920.57
2018-03-24T03:52:06.882Z,920.53
2018-03-24T03:53:06.868Z,920.56
2018-03-24T03:54:06.859Z,920.52
2018-03-24T03:55:06.852Z,920.53
2018-03-24T03:56:06.843Z,920.52
2018-03-24T03:57:06.836Z,920.52
2018-03-24T03:58:06.829Z,920.53
2018-03-24T03:59:06.821Z,920.48
2018-03-24T04:00:06.813Z,920.48
2018-03-24T04:01:06.807Z,920.43
2018-03-24T04:02:06.797Z,920.45
2018-03-24T04:03:06.789Z,920.41
2018-03-24T04:04:06.781Z,920.38
2018-03-24T04:05:06.774Z,920.40
2018-03-24T04:06:06.766Z,920.36
2018-03-24T04:07:06.759Z,920.36
2018-03-24T04:08:06.751Z,920.34
2018-03-24T04:09:06.742Z,920.31
2018-03-24T04:10:06.735Z,920.36
2018-03-24T04:11:06.727Z,920.29
2018-03-24T04:12:06.722Z,920.30
2018-03-24T04:13:06.711Z,920.29
2018-03-24T04:14:06.704Z,920.32
2018-03-24T04:15:06.697Z,920.31
2018-03-24T04:16:06.688Z,920.27
2018-03-24T04:17:06.689Z,920.32
2018-03-24T04:18:06.671Z,920.25
2018-03-24T04:19:06.666Z,920.20
2018-03-24T04:20:06.658Z,920.25
2018-03-24T04:21:06.647Z,920.19
2018-03-24T04:22:06.641Z,920.19
2018-03-24T04:23:06.637Z,920.22
2018-03-24T04:24:06.624Z,920.19
2018-03-24T04:25:06.617Z,920.20
2018-03-24T04:26:06.609Z,920.16
2018-03-24T04:27:06.602Z,920.19
2018-03-24T04:28:06.594Z,920.14
2018-03-24T04:29:06.624Z,920.14
2018-03-24T04:30:06.579Z,920.11
2018-03-24T04:31:06.571Z,920.10
2018-03-24T04:32:06.562Z,920.13
2018-03-24T04:33:06.554Z,920.10
2018-03-24T04:34:06.548Z,920.07
2018-03-24T04:35:06.544Z,920.05
2018-03-24T04:36:06.530Z,920.05
2018-03-24T04:37:06.522Z,920.06
2018-03-24T04:38:06.517Z,920.02
2018-03-24T04:39:06.506Z,919.99
2018-03-24T04:40:06.498Z,919.98
2018-03-24T04:41:06.491Z,920.03
2018-03-24T04:42:06.486Z,920.04
2018-03-24T04:43:06.476Z,920.05
2018-03-24T04:44:06.466Z,920.04
2018-03-24T04:45:06.460Z,919.98
2018-03-24T04:46:06.452Z,920.03
2018-03-24T04:47:06.444Z,919.99
2018-03-24T04:48:06.434Z,919.98
2018-03-24T04:49:06.426Z,919.98
2018-03-24T04:50:06.424Z,919.99
2018-03-24T04:51:06.412Z,920.02
2018-03-24T04:52:06.404Z,919.99
2018-03-24T04:53:06.396Z,920.02
2018-03-24T04:54:06.387Z,920.00
2018-03-24T04:55:06.379Z,919.96
2018-03-24T04:56:06.371Z,919.98
2018-03-24T04:57:06.370Z,919.97
2018-03-24T04:58:06.355Z,919.91
2018-03-24T04:59:06.348Z,919.92
2018-03-24T05:00:06.339Z,919.92
2018-03-24T05:01:06.331Z,919.92
2018-03-24T05:02:06.326Z,919.92
2018-03-24T05:03:06.318Z,919.87
2018-03-24T05:04:06.307Z,919.90
2018-03-24T05:05:06.299Z,919.91
2018-03-24T05:06:06.291Z,919.91
2018-03-24T05:07:06.284Z,919.92
2018-03-24T05:08:06.275Z,919.85
2018-03-24T05:09:06.266Z,919.82
2018-03-24T05:10:06.260Z,919.83
2018-03-24T05:11:06.252Z,919.82
2018-03-24T05:12:06.244Z,919.83
2018-03-24T05:13:06.239Z,919.84
2018-03-24T05:14:06.228Z,919.84
2018-03-24T05:15:06.220Z,919.79
2018-03-24T05:16:06.212Z,919.86
2018-03-24T05:17:06.216Z,919.89
2018-03-24T05:18:06.197Z,919.83
2018-03-24T05:19:06.189Z,919.81
2018-03-24T05:20:06.181Z,919.78
2018-03-24T05:21:06.176Z,919.76
2018-03-24T05:22:06.164Z,919.78
2018-03-24T05:23:06.157Z,919.79
2018-03-24T05:24:06.149Z,919.75
2018-03-24T05:25:06.141Z,919.76
2018-03-24T05:26:06.133Z,919.76
2018-03-24T05:27:06.126Z,919.71
2018-03-24T05:28:06.116Z,919.76
2018-03-24T05:29:06.108Z,919.75
2018-03-24T05:30:06.101Z,919.74
2018-03-24T05:31:06.093Z,919.74
2018-03-24T05:32:06.085Z,919.75
2018-03-24T05:33:06.078Z,919.75
2018-03-24T05:34:06.069Z,919.72
2018-03-24T05:35:06.070Z,919.72
2018-03-24T05:36:06.054Z,919.68
2018-03-24T05:37:06.045Z,919.67
2018-03-24T05:38:06.039Z,919.67
2018-03-24T05:39:06.060Z,919.70
2018-03-24T05:40:06.022Z,919.71
2018-03-24T05:41:06.014Z,919.71
2018-03-24T05:42:06.007Z,919.69
2018-03-24T05:43:05.998Z,919.65
2018-03-24T05:44:05.989Z,919.66
2018-03-24T05:45:05.983Z,919.67
2018-03-24T05:46:05.976Z,919.68
2018-03-24T05:47:05.968Z,919.67
2018-03-24T05:48:05.959Z,919.65
2018-03-24T05:49:05.953Z,919.68
2018-03-24T05:50:05.949Z,919.66
2018-03-24T05:51:05.937Z,919.70
2018-03-24T05:52:05.929Z,919.71
2018-03-24T05:53:05.920Z,919.68
2018-03-24T05:54:05.913Z,919.72
2018-03-24T05:55:05.906Z,919.71
2018-03-24T05:56:05.896Z,919.69
2018-03-24T05:57:05.890Z,919.66
2018-03-24T05:58:05.881Z,919.63
2018-03-24T05:59:05.873Z,919.61
2018-03-24T06:00:05.865Z,919.61
2018-03-24T06:01:05.859Z,919.64
2018-03-24T06:02:05.853Z,919.59
2018-03-24T06:03:05.844Z,919.60
2018-03-24T06:04:05.865Z,919.57
2018-03-24T06:05:05.826Z,919.56
2018-03-24T06:06:05.819Z,919.59
2018-03-24T06:07:05.812Z,919.56
2018-03-24T06:08:05.804Z,919.55
2018-03-24T06:09:05.796Z,919.54
2018-03-24T06:10:05.790Z,919.63
2018-03-24T06:11:05.781Z,919.84
2018-03-24T06:12:05.781Z,920.12
2018-03-24T06:13:05.767Z,920.11
2018-03-24T06:14:05.760Z,919.94
2018-03-24T06:15:05.755Z,919.95
2018-03-24T06:16:05.747Z,920.08
2018-03-24T06:17:05.742Z,920.14
2018-03-24T06:18:05.737Z,920.15
2018-03-24T06:19:05.733Z,920.21
2018-03-24T06:20:05.729Z,920.15
2018-03-24T06:21:05.725Z,919.97
2018-03-24T06:22:05.779Z,920.12
2018-03-24T06:23:05.721Z,920.35
2018-03-24T06:24:05.720Z,920.39
2018-03-24T06:25:05.719Z,920.41
2018-03-24T06:26:05.717Z,920.40
2018-03-24T06:27:05.720Z,920.37
2018-03-24T06:28:05.719Z,920.47
2018-03-24T06:29:05.718Z,920.54
2018-03-24T06:30:05.721Z,920.62
2018-03-24T06:31:06.005Z,920.63
2018-03-24T06:32:05.722Z,920.66
2018-03-24T06:33:05.728Z,920.65
2018-03-24T06:34:05.734Z,920.70
2018-03-24T06:35:05.734Z,920.69
2018-03-24T06:36:05.738Z,920.63
2018-03-24T06:37:05.742Z,920.61
2018-03-24T06:38:05.766Z,920.55
2018-03-24T06:39:05.753Z,920.50
2018-03-24T06:40:05.756Z,920.50
2018-03-24T06:41:05.763Z,920.55
2018-03-24T06:42:05.773Z,920.73
2018-03-24T06:43:05.777Z,920.69
2018-03-24T06:44:05.783Z,920.70
2018-03-24T06:45:05.787Z,920.71
2018-03-24T06:46:05.797Z,920.78
2018-03-24T06:47:05.803Z,920.80
2018-03-24T06:48:05.807Z,920.71
2018-03-24T06:49:05.815Z,920.72
2018-03-24T06:50:05.823Z,920.79
2018-03-24T06:51:05.832Z,920.79
2018-03-24T06:52:05.839Z,920.73
2018-03-24T06:53:05.848Z,920.67
2018-03-24T06:54:05.856Z,920.60
2018-03-24T06:55:05.866Z,920.62
2018-03-24T06:56:05.870Z,920.71
2018-03-24T06:57:05.879Z,920.68
2018-03-24T06:58:05.887Z,920.67
2018-03-24T06:59:05.896Z,920.64
2018-03-24T07:00:05.904Z,920.62
2018-03-24T07:01:05.916Z,920.54
2018-03-24T07:02:05.919Z,920.39
2018-03-24T07:03:05.927Z,920.41
2018-03-24T07:04:05.934Z,920.55
2018-03-24T07:05:05.941Z,920.63
2018-03-24T07:06:05.950Z,920.59
2018-03-24T07:07:05.958Z,920.56
2018-03-24T07:08:05.965Z,920.54
2018-03-24T07:09:05.973Z,920.51
2018-03-24T07:10:05.982Z,920.46
2018-03-24T07:11:05.990Z,920.46
2018-03-24T07:12:05.998Z,920.48
2018-03-24T07:13:06.052Z,920.47
2018-03-24T07:14:06.015Z,920.43
2018-03-24T07:15:06.024Z,920.30
2018-03-24T07:16:06.031Z,920.28
2018-03-24T07:17:06.040Z,920.30
2018-03-24T07:18:06.048Z,920.37
2018-03-24T07:19:06.058Z,920.40
2018-03-24T07:20:06.066Z,920.37
2018-03-24T07:21:06.075Z,920.31
2018-03-24T07:22:06.085Z,920.27
2018-03-24T07:23:06.091Z,920.28
2018-03-24T07:24:06.099Z,920.28
2018-03-24T07:25:06.108Z,920.23
2018-03-24T07:26:06.115Z,920.27
2018-03-24T07:27:06.131Z,920.29
2018-03-24T07:28:06.133Z,920.36
2018-03-24T07:29:06.142Z,920.37
2018-03-24T07:30:06.152Z,920.33
2018-03-24T07:31:06.159Z,920.34
2018-03-24T07:32:06.165Z,920.34
2018-03-24T07:33:06.174Z,920.37
2018-03-24T07:34:06.184Z,920.28
2018-03-24T07:35:06.190Z,920.22
2018-03-24T07:36:06.200Z,920.22
2018-03-24T07:37:06.204Z,920.28
2018-03-24T07:38:06.213Z,920.29
2018-03-24T07:39:06.222Z,920.32
2018-03-24T07:40:06.226Z,920.32
2018-03-24T07:41:06.234Z,920.38
2018-03-24T07:42:06.241Z,920.38
2018-03-24T07:43:06.250Z,920.36
2018-03-24T07:44:06.256Z,920.39
2018-03-24T07:45:06.262Z,920.41
2018-03-24T07:46:06.270Z,920.40
2018-03-24T07:47:06.282Z,920.47
2018-03-24T07:48:06.288Z,920.49
2018-03-24T07:49:06.295Z,920.43
2018-03-24T07:50:06.303Z,920.44
2018-03-24T07:51:06.313Z,920.43
2018-03-24T07:52:06.321Z,920.47
2018-03-24T07:53:06.331Z,920.50
2018-03-24T07:54:06.341Z,920.46
2018-03-24T07:55:06.351Z,920.50
2018-03-24T07:56:06.359Z,920.45
2018-03-24T07:57:06.371Z,920.42
2018-03-24T07:58:06.380Z,920.40
2018-03-24T07:59:06.390Z,920.40
2018-03-24T08:00:06.399Z,920.37
2018-03-24T08:01:06.409Z,920.41
2018-03-24T08:02:06.419Z,920.40
2018-03-24T08:03:06.436Z,920.36
2018-03-24T08:04:06.442Z,920.32
2018-03-24T08:05:06.448Z,920.30
2018-03-24T08:06:06.458Z,920.28
2018-03-24T08:07:06.466Z,920.33
2018-03-24T08:08:06.473Z,920.32
2018-03-24T08:09:06.482Z,920.34
2018-03-24T08:10:06.496Z,920.34
2018-03-24T08:11:06.501Z,920.28
2018-03-24T08:12:06.509Z,920.28
2018-03-24T08:13:06.514Z,920.26
2018-03-24T08:14:06.530Z,920.24
2018-03-24T08:15:06.534Z,920.24
2018-03-24T08:16:06.538Z,920.26
2018-03-24T08:17:06.545Z,920.28
2018-03-24T08:18:06.552Z,920.27
2018-03-24T08:19:06.559Z,920.24
2018-03-24T08:20:06.566Z,920.22
2018-03-24T08:21:06.572Z,920.24
2018-03-24T08:22:06.580Z,920.20
2018-03-24T08:23:06.642Z,920.16
2018-03-24T08:24:06.592Z,920.17
2018-03-24T08:25:06.598Z,920.17
2018-03-24T08:26:06.604Z,920.16
2018-03-24T08:27:06.615Z,920.18
2018-03-24T08:28:06.618Z,920.16
2018-03-24T08:29:06.623Z,920.18
2018-03-24T08:30:06.630Z,920.20
2018-03-24T08:31:06.642Z,920.15
2018-03-24T08:32:06.643Z,920.14
2018-03-24T08:33:06.653Z,920.11
2018-03-24T08:34:06.657Z,920.14
2018-03-24T08:35:06.662Z,920.17
2018-03-24T08:36:06.668Z,920.16
2018-03-24T08:37:06.674Z,920.16
2018-03-24T08:38:06.682Z,920.12
2018-03-24T08:39:06.687Z,920.20
2018-03-24T08:40:06.694Z,920.19
2018-03-24T08:41:06.707Z,920.22
2018-03-24T08:42:06.707Z,920.22
2018-03-24T08:43:06.715Z,920.22
2018-03-24T08:44:06.721Z,920.24
2018-03-24T08:45:06.730Z,920.19
2018-03-24T08:46:06.737Z,920.16
2018-03-24T08:47:06.744Z,920.18
2018-03-24T08:48:06.750Z,920.18
2018-03-24T08:49:06.838Z,920.19
2018-03-24T08:50:06.788Z,920.19
2018-03-24T08:51:06.773Z,920.19
2018-03-24T08:52:06.779Z,920.14
2018-03-24T08:53:06.817Z,920.11
2018-03-24T08:54:06.795Z,920.11
2018-03-24T08:55:06.803Z,920.10
2018-03-24T08:56:06.806Z,920.11
2018-03-24T08:57:06.816Z,920.15
2018-03-24T08:58:06.820Z,920.14
2018-03-24T08:59:06.827Z,920.17
2018-03-24T09:00:06.833Z,920.08
2018-03-24T09:01:06.837Z,920.12
2018-03-24T09:02:06.846Z,920.12
2018-03-24T09:03:06.854Z,920.19
2018-03-24T09:04:06.859Z,920.18
2018-03-24T09:05:06.862Z,920.19
2018-03-24T09:06:06.869Z,920.17
2018-03-24T09:07:06.876Z,920.17
2018-03-24T09:08:06.881Z,920.15
2018-03-24T09:09:06.888Z,920.18
2018-03-24T09:10:06.894Z,920.21
2018-03-24T09:11:06.902Z,920.16
2018-03-24T09:12:06.907Z,920.15
2018-03-24T09:13:06.914Z,920.13
2018-03-24T09:14:06.919Z,920.12
2018-03-24T09:15:06.980Z,920.07
2018-03-24T09:16:06.933Z,920.12
2018-03-24T09:17:06.938Z,920.10
2018-03-24T09:18:06.945Z,920.05
2018-03-24T09:19:06.949Z,920.04
2018-03-24T09:20:06.956Z,920.05
2018-03-24T09:21:06.961Z,920.08
2018-03-24T09:22:06.967Z,920.06
2018-03-24T09:23:06.980Z,920.05
2018-03-24T09:24:06.975Z,920.09
2018-03-24T09:25:06.981Z,920.05
2018-03-24T09:26:06.988Z,920.09
2018-03-24T09:27:06.990Z,920.10
2018-03-24T09:28:06.995Z,920.14
2018-03-24T09:29:07.000Z,920.09
2018-03-24T09:30:07.008Z,920.10
2018-03-24T09:31:07.011Z,920.14
2018-03-24T09:32:07.018Z,920.14
2018-03-24T09:33:07.022Z,920.14
2018-03-24T09:34:07.028Z,920.19
2018-03-24T09:35:07.035Z,920.13
2018-03-24T09:36:07.042Z,920.08
2018-03-24T09:37:07.047Z,920.16
2018-03-24T09:38:07.057Z,920.15
2018-03-24T09:39:07.063Z,920.13
2018-03-24T09:40:07.070Z,920.13
2018-03-24T09:41:07.075Z,920.13
2018-03-24T09:42:07.082Z,920.16
2018-03-24T09:43:07.090Z,920.11
2018-03-24T09:44:07.105Z,920.13
2018-03-24T09:45:07.103Z,920.17
2018-03-24T09:46:07.111Z,920.17
2018-03-24T09:47:07.119Z,920.19
2018-03-24T09:48:07.127Z,920.18
2018-03-24T09:49:07.134Z,920.15
2018-03-24T09:50:07.145Z,920.10
2018-03-24T09:51:07.152Z,920.13
2018-03-24T09:52:07.158Z,920.11
2018-03-24T09:53:07.170Z,920.11
2018-03-24T09:54:07.174Z,920.09
2018-03-24T09:55:07.183Z,920.10
2018-03-24T09:56:07.190Z,920.13
2018-03-24T09:57:07.199Z,920.18
2018-03-24T09:58:07.206Z,920.17
2018-03-24T09:59:07.224Z,920.22
2018-03-24T10:00:07.221Z,920.21
2018-03-24T10:01:07.229Z,920.22
2018-03-24T10:02:07.240Z,920.24
2018-03-24T10:03:07.249Z,920.25
2018-03-24T10:04:07.254Z,920.24
2018-03-24T10:05:07.263Z,920.22
2018-03-24T10:06:07.270Z,920.22
2018-03-24T10:07:07.281Z,920.21
2018-03-24T10:08:07.288Z,920.21
2018-03-24T10:09:07.297Z,920.21
2018-03-24T10:10:07.305Z,920.25
2018-03-24T10:11:07.314Z,920.22
2018-03-24T10:12:07.322Z,920.21
2018-03-24T10:13:07.332Z,920.22
2018-03-24T10:14:07.341Z,920.25
2018-03-24T10:15:07.350Z,920.21
2018-03-24T10:16:07.360Z,920.25
2018-03-24T10:17:07.371Z,920.25
2018-03-24T10:18:07.381Z,920.29
2018-03-24T10:19:07.390Z,920.32
2018-03-24T10:20:07.400Z,920.32
2018-03-24T10:21:07.427Z,920.29
2018-03-24T10:22:07.423Z,920.26
2018-03-24T10:23:07.432Z,920.27
2018-03-24T10:24:07.441Z,920.31
2018-03-24T10:25:07.451Z,920.28
2018-03-24T10:26:07.463Z,920.24
2018-03-24T10:27:07.472Z,920.23
2018-03-24T10:28:07.482Z,920.28
2018-03-24T10:29:07.513Z,920.23
2018-03-24T10:30:07.804Z,920.26
2018-03-24T10:31:07.516Z,920.28
2018-03-24T10:32:07.524Z,920.25
2018-03-24T10:33:07.537Z,920.24
2018-03-24T10:34:07.545Z,920.23
2018-03-24T10:35:07.557Z,920.22
2018-03-24T10:36:07.568Z,920.24
2018-03-24T10:37:07.578Z,920.24
2018-03-24T10:38:07.588Z,920.24
2018-03-24T10:39:07.599Z,920.24
2018-03-24T10:40:07.610Z,920.24
2018-03-24T10:41:07.620Z,920.23
2018-03-24T10:42:07.630Z,920.27
2018-03-24T10:43:07.642Z,920.26
2018-03-24T10:44:07.651Z,920.30
2018-03-24T10:45:07.662Z,920.28
2018-03-24T10:46:07.673Z,920.29
2018-03-24T10:47:07.685Z,920.25
2018-03-24T10:48:07.696Z,920.30
2018-03-24T10:49:07.710Z,920.30
2018-03-24T10:50:07.718Z,920.30
2018-03-24T10:51:07.728Z,920.26
2018-03-24T10:52:07.737Z,920.29
2018-03-24T10:53:07.751Z,920.27
2018-03-24T10:54:07.759Z,920.28
2018-03-24T10:55:07.770Z,920.19
2018-03-24T10:56:07.781Z,920.23
2018-03-24T10:57:07.790Z,920.25
2018-03-24T10:58:07.801Z,920.27
2018-03-24T10:59:07.814Z,920.31
2018-03-24T11:00:07.821Z,920.32
2018-03-24T11:01:07.837Z,920.32
2018-03-24T11:02:07.844Z,920.30
2018-03-24T11:03:07.859Z,920.31
2018-03-24T11:04:07.924Z,920.30
2018-03-24T11:05:07.877Z,920.31
2018-03-24T11:06:07.888Z,920.32
2018-03-24T11:07:07.899Z,920.31
2018-03-24T11:08:07.910Z,920.35
2018-03-24T11:09:07.920Z,920.35
2018-03-24T11:10:07.933Z,920.36
2018-03-24T11:11:07.941Z,920.34
2018-03-24T11:12:07.951Z,920.41
2018-03-24T11:13:07.963Z,920.38
2018-03-24T11:14:07.972Z,920.39
2018-03-24T11:15:07.984Z,920.40
2018-03-24T11:16:07.992Z,920.40
2018-03-24T11:17:08.003Z,920.40
2018-03-24T11:18:08.015Z,920.37
2018-03-24T11:19:08.025Z,920.39
2018-03-24T11:20:08.035Z,920.40
2018-03-24T11:21:08.046Z,920.37
2018-03-24T11:22:08.245Z,920.36
2018-03-24T11:23:08.067Z,920.42
2018-03-24T11:24:08.076Z,920.40
2018-03-24T11:25:08.088Z,920.36
2018-03-24T11:26:08.097Z,920.39
2018-03-24T11:27:08.109Z,920.40
2018-03-24T11:28:08.116Z,920.40
2018-03-24T11:29:08.127Z,920.39
2018-03-24T11:30:08.148Z,920.40
2018-03-24T11:31:08.150Z,920.42
2018-03-24T11:32:08.159Z,920.42
2018-03-24T11:33:08.168Z,920.45
2018-03-24T11:34:08.179Z,920.44
2018-03-24T11:35:08.190Z,920.44
2018-03-24T11:36:08.199Z,920.41
2018-03-24T11:37:08.209Z,920.42
2018-03-24T11:38:08.219Z,920.46
2018-03-24T11:39:08.230Z,920.46
2018-03-24T11:40:08.239Z,920.44
2018-03-24T11:41:08.250Z,920.44
2018-03-24T11:42:08.258Z,920.42
2018-03-24T11:43:08.270Z,920.42
2018-03-24T11:44:08.279Z,920.43
2018-03-24T11:45:08.288Z,920.42
2018-03-24T11:46:08.299Z,920.45
2018-03-24T11:47:08.311Z,920.44
2018-03-24T11:48:08.319Z,920.47
2018-03-24T11:49:08.328Z,920.45
2018-03-24T11:50:08.341Z,920.48
2018-03-24T11:51:08.348Z,920.40
2018-03-24T11:52:08.376Z,920.46
2018-03-24T11:53:08.367Z,920.45
2018-03-24T11:54:08.378Z,920.47
2018-03-24T11:55:08.387Z,920.45
2018-03-24T11:56:08.414Z,920.47
2018-03-24T11:57:08.405Z,920.49
2018-03-24T11:58:08.415Z,920.49
2018-03-24T11:59:08.424Z,920.48
2018-03-24T12:00:08.432Z,920.49
2018-03-24T12:01:08.442Z,920.52
2018-03-24T12:02:08.452Z,920.56
2018-03-24T12:03:08.460Z,920.55
2018-03-24T12:04:08.470Z,920.54
2018-03-24T12:05:08.479Z,920.54
2018-03-24T12:06:08.489Z,920.57
2018-03-24T12:07:08.501Z,920.52
2018-03-24T12:08:08.506Z,920.56
2018-03-24T12:09:08.516Z,920.59
2018-03-24T12:10:08.524Z,920.57
2018-03-24T12:11:08.534Z,920.62
2018-03-24T12:12:08.544Z,920.58
2018-03-24T12:13:08.554Z,920.53
2018-03-24T12:14:08.564Z,920.60
2018-03-24T12:15:08.572Z,920.59
2018-03-24T12:16:08.581Z,920.57
2018-03-24T12:17:08.590Z,920.58
2018-03-24T12:18:08.599Z,920.59
2018-03-24T12:19:08.608Z,920.63
2018-03-24T12:20:08.618Z,920.60
2018-03-24T12:21:08.625Z,920.60
2018-03-24T12:22:08.652Z,920.66
2018-03-24T12:23:08.643Z,920.65
2018-03-24T12:24:08.651Z,920.69
2018-03-24T12:25:08.659Z,920.67
2018-03-24T12:26:08.670Z,920.70
2018-03-24T12:27:08.679Z,920.71
2018-03-24T12:28:08.686Z,920.75